Main page
METAR-TAF:

METAR-TAF

Airports :

Nueces County Airport

Robstown, Texas, United States

latitude: 27-46-42N, longitude: 097-41-25W, elevation: 79 ft

Current weather observation

The report was made 23 minutes ago, at 05:15 UTC
Wind 7 mph from the Southeast
Temperature 63°F
Humidity 82%
Pressure 29.77 in. Hg
Visibility: 10 miles
Clear sky

METAR: KRBO 150515Z AUTO 14006KT 10SM CLR 17/14 A2977 RMK AO2 T01660136

Time: 23:38 (05:38 UTC)


TAF: missing

Weather observations and forecasts of more than 4000 airports (METAR and TAF reports).

The available stations are represented by yellow and red dots on the map.

Hover mouse over dot to see the name of the station.

Then click to see weather observations and forecasts.

To change the map : click on the green buttons with a black cross to zoom in, on the green button with a dash to zoom out, or on the green arrows for adjacent maps.


METAR-TAF: